createdAt,value
2023-04-02T00:01:05.153Z,37
2023-04-02T00:16:05.658Z,33
2023-04-02T00:31:05.787Z,33
2023-04-02T00:46:05.848Z,32
2023-04-02T01:01:05.107Z,33
2023-04-02T01:16:04.845Z,32
2023-04-02T01:31:05.963Z,33
2023-04-02T01:46:06.059Z,33
2023-04-02T02:01:04.958Z,29
2023-04-02T02:16:06.066Z,28
2023-04-02T02:31:05.095Z,27
2023-04-02T02:46:05.814Z,25
2023-04-02T03:01:05.465Z,24
2023-04-02T03:16:05.255Z,23
2023-04-02T03:31:05.772Z,23
2023-04-02T03:46:05.480Z,22
2023-04-02T04:01:04.982Z,24
2023-04-02T04:16:05.812Z,29
2023-04-02T04:31:04.988Z,29
2023-04-02T04:46:05.596Z,26
2023-04-02T05:01:05.796Z,24
2023-04-02T05:16:05.967Z,12
2023-04-02T05:31:05.990Z,11
2023-04-02T05:46:05.857Z,9
2023-04-02T06:01:05.259Z,8
2023-04-02T06:16:05.037Z,8
2023-04-02T06:31:05.777Z,6
2023-04-02T06:46:05.359Z,5
2023-04-02T07:01:05.817Z,4
2023-04-02T07:16:05.303Z,5
2023-04-02T07:31:05.277Z,5
2023-04-02T07:46:04.936Z,8
2023-04-02T08:01:05.627Z,5
2023-04-02T08:16:05.593Z,4
2023-04-02T08:31:05.244Z,4
2023-04-02T08:46:04.762Z,8
2023-04-02T09:01:05.228Z,6
2023-04-02T09:16:04.809Z,6
2023-04-02T09:31:06.822Z,9
2023-04-02T09:46:04.910Z,11
2023-04-02T10:01:05.258Z,9
2023-04-02T10:16:05.427Z,8
2023-04-02T10:31:04.775Z,11
2023-04-02T10:46:04.913Z,27
2023-04-02T11:01:05.437Z,18
2023-04-02T11:16:05.883Z,18
2023-04-02T11:31:05.735Z,15
2023-04-02T11:46:05.659Z,14
2023-04-02T12:01:05.389Z,14
2023-04-02T12:16:04.951Z,13
2023-04-02T12:31:05.563Z,18
2023-04-02T12:46:04.989Z,16
2023-04-02T13:01:05.695Z,17
2023-04-02T13:16:05.218Z,13
2023-04-02T13:31:05.661Z,18
2023-04-02T13:46:05.457Z,14
2023-04-02T14:01:04.635Z,15
2023-04-02T14:16:05.079Z,15
2023-04-02T14:31:05.249Z,12
2023-04-02T14:46:04.785Z,15
2023-04-02T15:01:04.688Z,12
2023-04-02T15:16:05.437Z,8
2023-04-02T15:31:05.633Z,7
2023-04-02T15:46:05.067Z,5
2023-04-02T16:01:05.339Z,4
2023-04-02T16:16:05.616Z,5
2023-04-02T16:31:05.027Z,7
2023-04-02T16:46:05.060Z,10
2023-04-02T17:01:05.655Z,8
2023-04-02T17:16:05.368Z,8
2023-04-02T17:31:05.715Z,11
2023-04-02T17:46:05.421Z,12
2023-04-02T18:01:05.057Z,13
2023-04-02T18:16:05.742Z,12
2023-04-02T18:31:05.550Z,12
2023-04-02T18:46:05.154Z,13
2023-04-02T19:01:04.988Z,12
2023-04-02T19:16:05.236Z,11
2023-04-02T19:31:06.595Z,14
2023-04-02T19:46:04.816Z,12
2023-04-02T20:01:04.763Z,12
2023-04-02T20:16:05.264Z,11
2023-04-02T20:31:05.645Z,12
2023-04-02T20:46:05.032Z,13
2023-04-02T21:01:05.719Z,12
2023-04-02T21:16:05.030Z,11
2023-04-02T21:31:05.617Z,9
2023-04-02T21:46:05.511Z,10
2023-04-02T22:01:07.062Z,7
2023-04-02T22:16:06.444Z,8
2023-04-02T22:31:05.635Z,9
2023-04-02T22:46:05.692Z,12
2023-04-02T23:01:05.365Z,10
2023-04-02T23:16:05.750Z,9
2023-04-02T23:31:05.463Z,8
2023-04-02T23:46:05.482Z,8
